Time;durP1;ratioP1;P1;durP2;ratioP2;P2;SDS_P1;SDS_P2;PMS_P1;PMS_P2;Temp;Humidity;BMP_temperature;BMP_pressure;BME280_temperature;BME280_humidity;BME280_pressure;Samples;Min_cycle;Max_cycle;Signal;HPM_P1;HPM_P2
2021/12/28 00:00:13;;;;;;;3.00;2.80;;;;;;;9.25;73.39;99115.69;681445;29;1117;-82
2021/12/28 00:00:34;;;;;;;2.67;2.47;;;;;;;9.22;73.26;99113.94;680406;28;1417;-84
2021/12/28 00:00:56;;;;;;;2.58;2.38;;;;;;;9.23;73.66;99118.31;680171;29;753;-83
2021/12/28 00:01:17;;;;;;;2.60;2.40;;;;;;;9.17;73.46;99113.06;682094;28;1410;-84
2021/12/28 00:01:38;;;;;;;2.80;2.42;;;;;;;9.16;73.46;99108.72;679929;29;1704;-83
2021/12/28 00:01:58;;;;;;;2.55;2.35;;;;;;;9.16;73.66;99109.56;682619;29;1264;-83
2021/12/28 00:02:19;;;;;;;2.60;2.40;;;;;;;9.19;73.54;99113.94;679507;29;1365;-83
2021/12/28 00:02:41;;;;;;;2.65;2.45;;;;;;;9.19;73.73;99116.53;685213;28;1199;-83
2021/12/28 00:03:01;;;;;;;2.70;2.50;;;;;;;9.23;73.58;99120.91;682565;29;1266;-83
2021/12/28 00:03:22;;;;;;;3.03;2.72;;;;;;;9.21;73.54;99116.56;679946;29;1269;-83
2021/12/28 00:03:45;;;;;;;3.10;2.80;;;;;;;9.19;73.90;99108.72;672683;29;1170;-83
2021/12/28 00:04:06;;;;;;;3.08;2.88;;;;;;;9.25;73.45;99118.31;678251;29;1718;-83
2021/12/28 00:04:27;;;;;;;3.03;2.67;;;;;;;9.25;73.70;99123.50;679833;29;1383;-83
2021/12/28 00:05:04;;;;;;;3.00;2.60;;;;;;;9.25;73.65;99115.69;678091;29;1171;-83
2021/12/28 00:05:26;;;;;;;2.72;2.55;;;;;;;9.30;73.81;99127.91;677246;29;1961;-83
2021/12/28 00:05:46;;;;;;;2.72;2.53;;;;;;;9.27;73.49;99116.59;672232;29;793;-83
2021/12/28 00:06:07;;;;;;;2.60;2.40;;;;;;;9.27;73.55;99116.59;678007;29;1178;-83
2021/12/28 00:06:27;;;;;;;2.80;2.60;;;;;;;9.28;73.62;99115.75;682154;29;1915;-83
2021/12/28 00:06:48;;;;;;;2.80;2.60;;;;;;;9.32;73.76;99126.19;684979;28;933;-82
2021/12/28 00:07:08;;;;;;;2.80;2.60;;;;;;;9.28;73.81;99110.53;679671;29;1281;-83
2021/12/28 00:07:29;;;;;;;2.53;2.38;;;;;;;9.30;73.38;99114.91;682639;29;1357;-83
2021/12/28 00:07:50;;;;;;;2.40;2.30;;;;;;;9.38;73.69;99129.66;677474;29;879;-84
2021/12/28 00:08:13;;;;;;;2.35;2.25;;;;;;;9.38;73.36;99127.94;677205;29;1099;-83
2021/12/28 00:08:33;;;;;;;2.50;2.30;;;;;;;9.32;73.52;99113.16;682630;29;906;-83
2021/12/28 00:08:54;;;;;;;2.55;2.30;;;;;;;9.34;73.44;99118.34;678654;29;1352;-84
2021/12/28 00:09:14;;;;;;;2.50;2.30;;;;;;;9.29;73.17;99110.53;682058;29;1231;-83
2021/12/28 00:09:35;;;;;;;2.60;2.40;;;;;;;9.32;73.53;99115.78;682530;29;1477;-83
2021/12/28 00:09:55;;;;;;;2.65;2.45;;;;;;;9.33;73.41;99121.84;682609;29;1147;-83
2021/12/28 00:10:18;;;;;;;2.60;2.40;;;;;;;9.34;73.44;99117.50;677273;29;1156;-83
2021/12/28 00:10:39;;;;;;;2.78;2.30;;;;;;;9.34;73.22;99122.72;677383;29;828;-84
2021/12/28 00:11:01;;;;;;;3.20;2.40;;;;;;;9.31;72.89;99108.81;677221;29;1234;-83
2021/12/28 00:11:21;;;;;;;2.97;2.30;;;;;;;9.39;73.19;99110.59;679159;29;1160;-83
2021/12/28 00:11:42;;;;;;;3.40;2.23;;;;;;;9.37;72.95;99112.31;677375;29;1217;-83
2021/12/28 00:12:03;;;;;;;2.90;2.20;;;;;;;9.44;73.15;99125.38;682104;28;1210;-83
2021/12/28 00:12:23;;;;;;;3.47;2.60;;;;;;;9.46;72.95;99123.66;682437;29;1178;-83
2021/12/28 00:12:44;;;;;;;2.72;2.53;;;;;;;9.40;72.83;99108.00;674956;29;1203;-83
2021/12/28 00:13:05;;;;;;;3.00;2.70;;;;;;;9.40;73.13;99113.19;680496;29;1209;-83
2021/12/28 00:13:27;;;;;;;3.20;2.50;;;;;;;9.44;73.13;99117.56;680019;28;1189;-83
2021/12/28 00:13:48;;;;;;;2.92;2.42;;;;;;;9.38;73.21;99103.63;682607;29;925;-83
2021/12/28 00:14:09;;;;;;;2.63;2.23;;;;;;;9.40;72.90;99109.75;675913;29;1788;-83
2021/12/28 00:14:35;;;;;;;2.40;2.20;;;;;;;9.41;72.86;99109.72;682648;29;733;-83
2021/12/28 00:15:06;;;;;;;2.80;2.60;;;;;;;9.44;72.88;99114.09;682626;29;1138;-83
2021/12/28 00:16:35;;;;;;;2.30;2.20;;;;;;;9.42;72.86;99103.69;679652;29;1187;-83
2021/12/28 00:18:14;;;;;;;2.33;2.13;;;;;;;9.45;72.89;99105.41;679572;29;1494;-83
2021/12/28 00:18:35;;;;;;;2.30;2.10;;;;;;;9.55;72.71;99116.75;682947;28;1160;-84
2021/12/28 00:18:57;;;;;;;2.42;2.22;;;;;;;9.50;72.67;99100.22;682645;29;1377;-83
2021/12/28 00:19:17;;;;;;;2.60;2.40;;;;;;;9.50;72.83;99103.72;676717;29;1303;-84
2021/12/28 00:19:38;;;;;;;2.80;2.60;;;;;;;9.46;72.66;99099.34;674511;29;1245;-83
2021/12/28 00:19:58;;;;;;;2.90;2.70;;;;;;;9.47;72.42;99101.09;674812;29;783;-84
2021/12/28 00:20:19;;;;;;;2.70;2.50;;;;;;;9.59;72.48;99102.91;679815;29;1155;-83
2021/12/28 00:20:43;;;;;;;2.50;2.30;;;;;;;9.69;72.45;99101.19;680060;29;828;-83
2021/12/28 00:21:06;;;;;;;2.10;2.00;;;;;;;9.78;72.25;99109.06;682169;29;1543;-83
2021/12/28 00:21:27;;;;;;;2.17;2.08;;;;;;;9.80;71.47;99104.75;677138;29;986;-83
2021/12/28 00:21:48;;;;;;;2.30;2.20;;;;;;;9.88;71.82;99109.97;685126;28;898;-83
2021/12/28 00:22:08;;;;;;;2.70;2.50;;;;;;;9.87;71.42;99111.72;686187;28;1204;-83
2021/12/28 00:22:40;;;;;;;2.67;2.47;;;;;;;9.93;71.52;99107.38;684993;28;1183;-83
2021/12/28 00:23:04;;;;;;;2.78;2.25;;;;;;;10.00;71.29;99109.13;672407;29;1494;-83
2021/12/28 00:23:32;;;;;;;2.33;2.13;;;;;;;9.99;71.21;99110.91;679847;29;968;-83
2021/12/28 00:23:53;;;;;;;3.08;2.25;;;;;;;10.06;71.21;99118.75;679864;29;1292;-83
2021/12/28 00:24:15;;;;;;;3.28;2.42;;;;;;;10.02;71.00;99123.06;676622;29;1140;-83
2021/12/28 00:24:36;;;;;;;3.17;2.33;;;;;;;10.02;70.96;99104.84;672119;29;1164;-83
2021/12/28 00:24:56;;;;;;;3.00;2.30;;;;;;;10.09;70.58;99114.38;679877;29;1500;-83
2021/12/28 00:25:49;;;;;;;3.05;2.42;;;;;;;10.13;70.85;99121.34;676644;29;1550;-83
2021/12/28 00:26:12;;;;;;;3.40;2.70;;;;;;;10.12;70.63;99106.59;679625;29;1143;-84
2021/12/28 00:26:33;;;;;;;2.70;2.50;;;;;;;10.07;70.65;99100.47;677109;29;1917;-83
2021/12/28 00:26:54;;;;;;;2.67;2.47;;;;;;;10.12;70.52;99109.19;677357;29;1100;-83
2021/12/28 00:27:14;;;;;;;2.50;2.30;;;;;;;10.14;70.50;99107.44;677233;29;1106;-84
2021/12/28 00:27:35;;;;;;;2.45;2.25;;;;;;;10.18;70.47;99117.91;680044;29;844;-83
2021/12/28 00:27:55;;;;;;;2.58;2.35;;;;;;;10.14;70.30;99112.66;674691;29;1191;-83
2021/12/28 00:28:16;;;;;;;2.80;2.60;;;;;;;10.16;70.60;99117.91;679769;28;1152;-84
2021/12/28 00:28:38;;;;;;;2.80;2.60;;;;;;;10.19;70.32;99114.44;681295;29;1629;-84
2021/12/28 00:28:59;;;;;;;2.70;2.50;;;;;;;10.13;70.54;99107.44;682656;29;839;-83
2021/12/28 00:29:22;;;;;;;2.53;2.33;;;;;;;10.11;70.23;99109.19;684268;28;1081;-84
2021/12/28 00:29:43;;;;;;;2.83;2.63;;;;;;;10.10;70.52;99105.72;682631;29;795;-83
2021/12/28 00:30:04;;;;;;;2.90;2.70;;;;;;;10.19;70.54;99109.22;679875;28;1306;-83
2021/12/28 00:30:25;;;;;;;3.08;2.88;;;;;;;10.09;70.38;99108.31;679702;28;1194;-83
2021/12/28 00:30:47;;;;;;;2.70;2.50;;;;;;;10.18;70.44;99107.47;676851;29;1556;-83
2021/12/28 00:31:08;;;;;;;2.33;2.22;;;;;;;10.15;70.15;99096.16;681654;29;1256;-83
2021/12/28 00:31:29;;;;;;;2.47;2.38;;;;;;;10.17;70.47;99111.81;680054;29;858;-84
2021/12/28 00:31:49;;;;;;;2.60;2.40;;;;;;;10.18;70.40;99110.94;677371;29;1209;-83
2021/12/28 00:32:10;;;;;;;2.67;2.47;;;;;;;10.12;70.62;99109.19;677180;29;1108;-84
2021/12/28 00:32:31;;;;;;;2.50;2.30;;;;;;;10.11;70.25;99102.25;678067;29;1082;-83
2021/12/28 00:32:53;;;;;;;2.43;2.33;;;;;;;10.20;70.29;99117.03;679977;29;792;-83
2021/12/28 00:33:15;;;;;;;2.67;2.47;;;;;;;10.11;70.37;99098.75;679818;29;1101;-84
2021/12/28 00:33:36;;;;;;;2.70;2.50;;;;;;;10.10;70.58;99099.63;685144;28;1489;-83
2021/12/28 00:33:58;;;;;;;2.80;2.60;;;;;;;10.17;70.51;99100.50;685224;28;1050;-83
2021/12/28 00:34:19;;;;;;;2.63;2.42;;;;;;;10.21;70.14;99110.94;682326;28;1295;-83
2021/12/28 00:34:41;;;;;;;2.60;2.50;;;;;;;10.20;70.38;99101.38;677110;29;1202;-83
2021/12/28 00:35:03;;;;;;;2.67;2.45;;;;;;;10.23;70.35;99105.78;677452;29;1057;-83
2021/12/28 00:35:29;;;;;;;2.97;2.50;;;;;;;10.19;70.08;99098.78;683375;28;1560;-83
2021/12/28 00:35:51;;;;;;;2.90;2.40;;;;;;;10.21;70.34;99104.88;682601;28;863;-84
2021/12/28 00:36:13;;;;;;;2.60;2.40;;;;;;;10.27;70.28;99112.75;686056;28;1222;-83
2021/12/28 00:36:34;;;;;;;2.58;2.38;;;;;;;10.15;70.17;99090.94;684631;28;1726;-83
2021/12/28 00:36:54;;;;;;;2.70;2.50;;;;;;;10.19;70.30;99093.59;683255;28;1160;-83
2021/12/28 00:37:15;;;;;;;2.80;2.60;;;;;;;10.23;70.11;99101.44;685413;28;1115;-84
2021/12/28 00:37:35;;;;;;;2.77;2.57;;;;;;;10.20;70.27;99110.97;684735;28;1275;-84
2021/12/28 00:37:57;;;;;;;2.80;2.60;;;;;;;10.13;70.44;99094.41;687932;28;1182;-83
2021/12/28 00:38:22;;;;;;;2.88;2.67;;;;;;;10.17;70.64;99101.38;679694;29;1432;-83
2021/12/28 00:38:43;;;;;;;2.97;2.70;;;;;;;10.17;70.84;99101.38;684917;28;1220;-84
2021/12/28 00:39:04;;;;;;;2.80;2.60;;;;;;;10.28;70.52;99109.28;682120;29;1265;-83
2021/12/28 00:39:25;;;;;;;2.70;2.50;;;;;;;10.10;70.58;99102.22;679404;29;1200;-83
2021/12/28 00:39:45;;;;;;;2.90;2.67;;;;;;;10.13;70.47;99084.88;674622;29;761;-83
2021/12/28 00:40:06;;;;;;;2.80;2.60;;;;;;;10.22;70.55;99107.50;674489;29;1150;-83
2021/12/28 00:40:27;;;;;;;2.80;2.60;;;;;;;10.24;70.40;99110.13;685201;28;1310;-83
2021/12/28 00:40:50;;;;;;;2.73;2.53;;;;;;;10.14;70.29;99093.56;682262;28;1836;-83
2021/12/28 00:41:11;;;;;;;3.03;2.72;;;;;;;10.18;70.40;99097.91;682415;28;1111;-83
2021/12/28 00:41:31;;;;;;;4.00;2.90;;;;;;;10.23;70.44;99105.78;682556;28;1259;-83
2021/12/28 00:41:52;;;;;;;3.47;2.85;;;;;;;10.20;70.42;99095.31;677392;29;777;-83
2021/12/28 00:42:14;;;;;;;3.20;2.50;;;;;;;10.22;70.51;99099.69;681014;28;1214;-83
2021/12/28 00:42:34;;;;;;;2.60;2.40;;;;;;;10.17;70.41;99100.50;677110;29;1856;-83
2021/12/28 00:42:55;;;;;;;4.15;2.63;;;;;;;10.15;70.58;99093.56;677302;29;1166;-83
2021/12/28 00:43:16;;;;;;;4.63;2.70;;;;;;;9.99;70.77;99096.97;681711;29;1248;-83
2021/12/28 00:43:38;;;;;;;4.63;2.58;;;;;;;9.93;70.98;99108.25;682522;29;871;-83
2021/12/28 00:43:58;;;;;;;2.75;2.40;;;;;;;9.79;71.38;99089.09;682577;29;1281;-83
2021/12/28 00:44:19;;;;;;;2.70;2.50;;;;;;;9.82;71.53;99102.13;679554;29;1184;-83
2021/12/28 00:44:40;;;;;;;2.70;2.50;;;;;;;9.73;71.75;99090.78;679992;29;799;-83
2021/12/28 00:45:01;;;;;;;2.70;2.50;;;;;;;9.76;71.81;99100.38;682610;28;1224;-84
2021/12/28 00:45:22;;;;;;;2.70;2.50;;;;;;;9.85;71.98;99115.19;687164;28;964;-83
2021/12/28 00:45:44;;;;;;;2.63;2.47;;;;;;;9.89;71.90;99098.69;677138;29;1377;-83
2021/12/28 00:46:06;;;;;;;2.70;2.60;;;;;;;9.87;71.96;99116.03;682483;28;1225;-83
2021/12/28 00:46:26;;;;;;;2.80;2.60;;;;;;;9.80;72.08;99101.25;679788;29;1899;-83
2021/12/28 00:46:47;;;;;;;2.72;2.53;;;;;;;9.78;72.29;99089.97;682581;28;1183;-83
2021/12/28 00:47:07;;;;;;;2.27;2.17;;;;;;;9.76;72.39;99095.16;685094;28;1205;-83
2021/12/28 00:47:28;;;;;;;2.35;2.25;;;;;;;9.78;72.60;99087.34;682492;29;1545;-83
2021/12/28 00:47:49;;;;;;;2.60;2.50;;;;;;;9.77;72.19;99096.03;685272;28;1181;-83
2021/12/28 00:48:10;;;;;;;2.80;2.60;;;;;;;9.82;72.07;99105.59;683470;28;1207;-83
2021/12/28 00:48:30;;;;;;;2.90;2.70;;;;;;;9.80;71.98;99101.25;684824;28;1396;-82
2021/12/28 00:48:51;;;;;;;2.78;2.60;;;;;;;9.79;72.15;99112.53;684963;28;907;-83
2021/12/28 00:49:12;;;;;;;3.10;2.80;;;;;;;9.73;71.86;99097.75;678281;29;1201;-83
2021/12/28 00:49:32;;;;;;;4.17;3.07;;;;;;;9.79;71.96;99100.41;685025;28;827;-85
2021/12/28 00:49:53;;;;;;;4.93;3.20;;;;;;;9.73;72.01;99098.59;687892;28;1252;-83
2021/12/28 00:50:15;;;;;;;4.03;2.85;;;;;;;9.80;71.86;99106.47;684595;28;1301;-84
2021/12/28 00:50:36;;;;;;;2.80;2.50;;;;;;;9.82;71.85;99105.59;677275;29;1366;-83
2021/12/28 00:50:56;;;;;;;2.63;2.42;;;;;;;9.79;72.14;99099.50;677269;29;1262;-84
2021/12/28 00:51:17;;;;;;;2.60;2.50;;;;;;;9.76;72.04;99089.94;681899;29;1218;-83
2021/12/28 00:51:37;;;;;;;2.97;2.70;;;;;;;9.70;72.13;99100.31;679898;29;1148;-83
2021/12/28 00:51:58;;;;;;;3.00;2.70;;;;;;;9.79;72.19;99099.50;682410;28;1198;-83
2021/12/28 00:52:19;;;;;;;3.60;2.80;;;;;;;9.76;72.00;99086.50;679688;29;1477;-83
2021/12/28 00:52:40;;;;;;;2.90;2.60;;;;;;;9.69;72.07;99086.44;679860;29;1199;-83
2021/12/28 00:53:00;;;;;;;3.55;2.60;;;;;;;9.70;72.16;99084.69;679883;29;1243;-82
2021/12/28 00:53:21;;;;;;;3.20;2.80;;;;;;;9.67;71.82;99077.78;677190;29;1301;-83
2021/12/28 00:53:42;;;;;;;3.60;2.83;;;;;;;9.64;71.93;99084.69;685026;28;1311;-83
2021/12/28 00:54:03;;;;;;;2.90;2.70;;;;;;;9.74;71.85;99102.09;682336;28;1258;-83
2021/12/28 00:54:24;;;;;;;3.65;2.70;;;;;;;9.65;72.28;99091.66;682500;29;1008;-82
2021/12/28 00:54:44;;;;;;;4.17;2.83;;;;;;;9.71;72.32;99096.88;677365;29;833;-83
2021/12/28 00:55:06;;;;;;;4.53;2.83;;;;;;;9.74;71.94;99096.88;680476;28;1173;-82
2021/12/28 00:55:27;;;;;;;4.00;3.00;;;;;;;9.62;72.25;99086.41;682588;29;1095;-83
2021/12/28 00:55:48;;;;;;;3.42;2.90;;;;;;;9.67;72.40;99095.13;685180;28;1072;-83
2021/12/28 00:56:09;;;;;;;4.10;3.03;;;;;;;9.72;72.59;99098.63;682376;29;1167;-83
2021/12/28 00:56:29;;;;;;;3.33;2.85;;;;;;;9.67;72.05;99079.50;677243;29;1177;-83
2021/12/28 00:56:50;;;;;;;3.20;2.90;;;;;;;9.70;72.21;99095.13;679786;28;1240;-83
2021/12/28 00:57:10;;;;;;;3.03;2.83;;;;;;;9.74;72.26;99094.28;682249;28;1207;-83
2021/12/28 00:57:31;;;;;;;3.20;2.88;;;;;;;9.62;72.12;99079.47;674729;29;824;-83
2021/12/28 00:57:53;;;;;;;3.20;2.70;;;;;;;9.70;72.41;99085.59;673038;29;1504;-83
2021/12/28 00:58:14;;;;;;;3.28;2.80;;;;;;;9.66;72.13;99078.63;679243;29;1378;-83
2021/12/28 00:58:37;;;;;;;3.08;2.78;;;;;;;9.63;72.13;99082.97;677212;29;1252;-83
2021/12/28 00:58:57;;;;;;;3.08;2.78;;;;;;;9.64;71.99;99075.13;674659;29;808;-83
2021/12/28 00:59:18;;;;;;;3.25;2.63;;;;;;;9.67;72.25;99084.69;678735;29;1215;-83
2021/12/28 00:59:39;;;;;;;3.00;2.70;;;;;;;9.69;72.06;99083.84;679756;29;1357;-83
2021/12/28 01:00:00;;;;;;;3.00;2.70;;;;;;;9.72;71.99;99073.44;679774;29;1153;-83
2021/12/28 01:00:27;;;;;;;3.40;2.80;;;;;;;9.77;71.96;99080.41;679675;29;1121;-83
2021/12/28 01:00:47;;;;;;;3.45;2.75;;;;;;;9.77;71.90;99085.63;679761;29;1394;-83
2021/12/28 01:01:08;;;;;;;3.15;2.75;;;;;;;9.78;71.96;99072.59;679727;29;1124;-83
2021/12/28 01:01:29;;;;;;;3.20;2.90;;;;;;;9.78;71.67;99077.81;677268;29;1128;-82
2021/12/28 01:01:49;;;;;;;2.80;2.60;;;;;;;9.75;71.64;99077.78;677176;29;1253;-83
2021/12/28 01:02:10;;;;;;;2.90;2.70;;;;;;;9.76;71.50;99073.47;680927;29;1158;-83
2021/12/28 01:02:47;;;;;;;3.00;2.80;;;;;;;9.75;71.78;99071.72;686897;28;1452;-83
2021/12/28 01:03:09;;;;;;;3.08;2.80;;;;;;;9.71;71.47;99074.31;684925;28;1621;-83
2021/12/28 01:03:30;;;;;;;3.00;2.80;;;;;;;9.76;71.82;99087.34;682599;29;803;-82
2021/12/28 01:03:50;;;;;;;3.10;2.90;;;;;;;9.74;71.55;99076.06;682421;29;1525;-83
2021/12/28 01:04:11;;;;;;;7.05;2.90;;;;;;;9.76;71.77;99086.50;677002;29;1354;-84
2021/12/28 01:04:32;;;;;;;7.10;2.80;;;;;;;9.72;71.61;99081.25;679935;29;1028;-83
2021/12/28 01:04:53;;;;;;;7.57;2.83;;;;;;;9.73;71.61;99079.53;682443;28;1167;-83
2021/12/28 01:05:14;;;;;;;3.80;3.03;;;;;;;9.74;71.74;99081.25;679606;29;1292;-83
2021/12/28 01:05:36;;;;;;;3.80;3.00;;;;;;;9.68;71.48;99071.69;679794;29;1269;-82
2021/12/28 01:05:57;;;;;;;3.20;2.90;;;;;;;9.66;71.73;99062.13;681756;29;1606;-82
2021/12/28 01:06:17;;;;;;;3.10;2.80;;;;;;;9.71;71.80;99076.06;679655;29;1922;-83
2021/12/28 01:06:38;;;;;;;3.20;2.90;;;;;;;9.72;71.69;99076.03;679520;29;1530;-83
2021/12/28 01:06:58;;;;;;;3.10;2.90;;;;;;;9.67;71.62;99074.28;685179;28;1188;-83
2021/12/28 01:07:29;;;;;;;3.20;2.90;;;;;;;9.63;72.00;99072.53;679671;29;1076;-83
2021/12/28 01:07:49;;;;;;;3.20;2.90;;;;;;;9.68;71.95;99087.31;671877;29;1850;-82
2021/12/28 01:08:11;;;;;;;3.00;2.80;;;;;;;9.67;71.90;99092.50;679617;29;1229;-83
2021/12/28 01:08:32;;;;;;;3.30;3.00;;;;;;;9.68;71.80;99081.22;685169;28;879;-83
2021/12/28 01:08:53;;;;;;;3.47;3.17;;;;;;;9.57;71.71;99068.16;683694;28;855;-83
2021/12/28 01:09:13;;;;;;;3.85;3.30;;;;;;;9.65;71.81;99087.28;682005;28;1175;-82
2021/12/28 01:09:35;;;;;;;4.50;3.10;;;;;;;9.64;71.93;99077.75;684850;28;1361;-83
2021/12/28 01:09:55;;;;;;;5.22;3.08;;;;;;;9.60;71.82;99079.47;684494;28;1165;-84
2021/12/28 01:10:22;;;;;;;4.90;3.13;;;;;;;9.65;71.58;99082.06;679592;28;1179;-83
2021/12/28 01:10:48;;;;;;;3.75;3.40;;;;;;;9.62;72.01;99081.19;679625;28;1716;-83
2021/12/28 01:11:09;;;;;;;4.10;3.30;;;;;;;9.52;71.98;99067.28;682434;29;1150;-83
2021/12/28 01:11:30;;;;;;;6.07;3.13;;;;;;;9.49;71.88;99068.13;682500;28;1252;-83
2021/12/28 01:12:04;;;;;;;7.50;3.30;;;;;;;9.56;71.91;99080.31;679842;29;1031;-83
2021/12/28 01:12:24;;;;;;;5.10;3.20;;;;;;;9.42;71.94;99071.56;687620;28;1314;-82
2021/12/28 01:13:00;;;;;;;3.40;3.00;;;;;;;9.40;72.46;99074.16;684874;28;1728;-82
2021/12/28 01:13:21;;;;;;;3.00;2.80;;;;;;;9.44;72.29;99081.13;684267;28;1455;-83
2021/12/28 01:13:42;;;;;;;3.00;2.80;;;;;;;9.42;72.33;99074.16;685190;28;816;-83
2021/12/28 01:14:03;;;;;;;3.00;2.80;;;;;;;9.39;72.73;99077.63;679672;29;1050;-83
2021/12/28 01:14:24;;;;;;;3.20;3.00;;;;;;;9.36;72.83;99061.09;682457;29;1341;-83
2021/12/28 01:14:45;;;;;;;3.40;3.10;;;;;;;9.32;72.70;99057.63;682501;29;884;-82
2021/12/28 01:15:06;;;;;;;3.33;3.03;;;;;;;9.37;72.62;99075.88;682345;28;1174;-83
2021/12/28 01:15:28;;;;;;;3.88;3.00;;;;;;;9.39;72.94;99053.34;685170;28;1278;-83
2021/12/28 01:15:50;;;;;;;3.20;2.90;;;;;;;9.44;72.60;99070.72;684725;28;1442;-82
2021/12/28 01:16:13;;;;;;;3.28;2.97;;;;;;;9.50;72.46;99088.09;682234;29;1113;-82
2021/12/28 01:16:34;;;;;;;3.20;3.00;;;;;;;9.44;72.67;99065.50;685047;28;839;-82
2021/12/28 01:16:55;;;;;;;3.38;3.08;;;;;;;9.47;72.62;99077.69;682633;29;792;-83
2021/12/28 01:17:16;;;;;;;3.40;3.10;;;;;;;9.44;72.42;99073.31;679621;29;1282;-82
2021/12/28 01:17:37;;;;;;;4.07;3.30;;;;;;;9.52;72.46;99085.50;677380;29;1017;-83
2021/12/28 01:17:59;;;;;;;3.95;3.30;;;;;;;9.50;72.47;99082.00;682102;29;761;-83
2021/12/28 01:18:21;;;;;;;4.50;3.30;;;;;;;9.45;72.37;99068.97;682258;28;1394;-82
2021/12/28 01:18:42;;;;;;;3.65;3.17;;;;;;;9.47;72.70;99077.69;679801;29;1719;-82
2021/12/28 01:19:03;;;;;;;3.40;3.00;;;;;;;9.46;72.50;99074.19;679701;29;1230;-82
2021/12/28 01:19:23;;;;;;;3.30;3.00;;;;;;;9.38;72.54;99062.88;683815;28;1360;-82
2021/12/28 01:19:44;;;;;;;3.40;3.10;;;;;;;9.39;72.36;99064.59;682397;29;1315;-82
2021/12/28 01:20:07;;;;;;;3.43;3.13;;;;;;;9.46;72.33;99081.13;682627;28;1474;-82
2021/12/28 01:20:28;;;;;;;3.40;3.00;;;;;;;9.49;72.20;99078.53;679736;28;1328;-82
2021/12/28 01:20:50;;;;;;;3.40;3.10;;;;;;;9.44;72.31;99067.22;682540;29;1165;-82
2021/12/28 01:21:10;;;;;;;3.42;3.10;;;;;;;9.40;72.13;99065.50;681288;29;1244;-82
2021/12/28 01:21:31;;;;;;;3.50;3.20;;;;;;;9.38;72.22;99068.06;679940;29;1206;-82
2021/12/28 01:21:52;;;;;;;3.60;3.30;;;;;;;9.42;72.48;99074.16;679709;28;1739;-82
2021/12/28 01:22:12;;;;;;;3.90;3.50;;;;;;;9.34;72.40;99065.44;686061;28;1154;-83
2021/12/28 01:22:33;;;;;;;5.50;3.60;;;;;;;9.41;72.14;99075.88;682545;29;867;-81
2021/12/28 01:22:54;;;;;;;5.95;3.60;;;;;;;9.31;72.30;99061.09;682483;28;929;-82
2021/12/28 01:23:15;;;;;;;5.53;3.28;;;;;;;9.37;72.27;99073.25;684888;28;1256;-82
2021/12/28 01:23:36;;;;;;;3.60;3.30;;;;;;;9.30;72.10;99059.34;682500;29;788;-82
2021/12/28 01:23:56;;;;;;;3.40;3.10;;;;;;;9.31;72.21;99071.50;682512;29;1063;-82
2021/12/28 01:24:18;;;;;;;4.07;3.67;;;;;;;9.22;72.27;99061.88;680824;29;1208;-82
2021/12/28 01:24:38;;;;;;;4.38;3.47;;;;;;;9.31;72.37;99071.50;677220;29;1400;-82
2021/12/28 01:25:00;;;;;;;5.30;3.60;;;;;;;9.22;72.38;99054.09;679590;29;1622;-82
2021/12/28 01:25:21;;;;;;;5.75;3.40;;;;;;;9.17;72.52;99058.41;682102;29;1166;-82
2021/12/28 01:25:42;;;;;;;4.22;3.08;;;;;;;9.15;72.13;99053.19;677313;29;1292;-83
2021/12/28 01:26:02;;;;;;;3.42;3.13;;;;;;;9.15;72.43;99054.94;678753;29;1256;-83
2021/12/28 01:26:23;;;;;;;3.30;3.10;;;;;;;9.15;72.71;99065.34;682535;29;1907;-82
2021/12/28 01:26:45;;;;;;;3.80;3.50;;;;;;;9.12;72.39;99055.78;682560;29;788;-82
2021/12/28 01:27:06;;;;;;;4.10;3.70;;;;;;;9.10;72.72;99056.63;682952;28;1206;-83
2021/12/28 01:27:26;;;;;;;3.90;3.50;;;;;;;9.04;72.72;99058.31;679926;29;1296;-82
2021/12/28 01:27:47;;;;;;;4.80;3.50;;;;;;;9.02;72.75;99057.44;679884;29;1280;-83
2021/12/28 01:28:08;;;;;;;4.82;3.30;;;;;;;8.93;72.88;99054.78;679961;29;1286;-83
2021/12/28 01:28:29;;;;;;;5.63;3.58;;;;;;;8.86;73.03;99048.66;679677;29;1241;-82
2021/12/28 01:28:49;;;;;;;4.30;3.67;;;;;;;8.85;72.75;99051.25;679646;29;1997;-82
2021/12/28 01:29:10;;;;;;;4.03;3.63;;;;;;;8.90;72.95;99062.56;682421;28;1196;-83
2021/12/28 01:29:32;;;;;;;4.35;3.70;;;;;;;8.82;72.84;99051.22;684885;28;1320;-82
2021/12/28 01:29:53;;;;;;;5.07;3.72;;;;;;;8.73;73.15;99047.69;682499;28;1374;-82
2021/12/28 01:30:15;;;;;;;4.53;3.78;;;;;;;8.76;73.12;99052.94;684031;28;1167;-82
2021/12/28 01:30:39;;;;;;;4.32;3.72;;;;;;;8.73;72.95;99060.69;679382;29;1615;-82
2021/12/28 01:30:59;;;;;;;3.80;3.40;;;;;;;8.73;73.42;99063.28;679805;29;907;-83
2021/12/28 01:31:20;;;;;;;4.50;3.40;;;;;;;8.74;73.40;99064.19;679314;29;1145;-82
2021/12/28 01:31:40;;;;;;;4.10;3.50;;;;;;;8.66;73.49;99060.66;685113;28;1015;-82
2021/12/28 01:32:01;;;;;;;4.60;3.95;;;;;;;8.72;73.38;99069.34;679763;29;1184;-83
2021/12/28 01:32:22;;;;;;;7.40;4.10;;;;;;;8.65;73.29;99059.75;685173;28;1021;-83
2021/12/28 01:32:42;;;;;;;7.53;4.10;;;;;;;8.62;73.63;99057.16;677043;29;1348;-82
2021/12/28 01:33:03;;;;;;;6.57;3.72;;;;;;;8.57;73.29;99056.19;685083;28;1222;-82
2021/12/28 01:33:23;;;;;;;3.97;3.57;;;;;;;8.58;73.66;99057.94;687744;28;1222;-82
2021/12/28 01:33:44;;;;;;;6.03;3.70;;;;;;;8.62;73.45;99054.56;687803;28;772;-82
2021/12/28 01:34:06;;;;;;;6.55;3.78;;;;;;;8.64;73.26;99060.63;684827;28;1202;-82
2021/12/28 01:34:27;;;;;;;6.20;3.80;;;;;;;8.58;73.68;99052.72;685011;28;1246;-82
2021/12/28 01:34:47;;;;;;;3.67;3.38;;;;;;;8.53;73.90;99051.84;679797;29;1099;-82
2021/12/28 01:35:11;;;;;;;3.45;3.15;;;;;;;8.52;73.74;99052.72;682359;29;1163;-82
2021/12/28 01:35:32;;;;;;;3.80;3.40;;;;;;;8.56;73.45;99065.75;682562;29;788;-83
2021/12/28 01:35:54;;;;;;;6.65;3.65;;;;;;;8.41;73.74;99045.66;681046;29;932;-82
2021/12/28 01:36:15;;;;;;;6.40;3.60;;;;;;;8.48;73.65;99068.25;683879;28;1275;-83
2021/12/28 01:36:35;;;;;;;4.90;3.30;;;;;;;8.46;73.94;99067.38;681124;29;1116;-82
2021/12/28 01:36:56;;;;;;;3.55;3.25;;;;;;;8.41;73.94;99061.25;682578;29;816;-83
2021/12/28 01:37:16;;;;;;;3.73;3.40;;;;;;;8.44;73.83;99071.69;683717;28;1147;-82
2021/12/28 01:37:37;;;;;;;3.85;3.40;;;;;;;8.33;73.76;99056.00;682480;29;732;-82
2021/12/28 01:37:58;;;;;;;3.80;3.40;;;;;;;8.38;73.90;99063.84;680248;29;756;-82
2021/12/28 01:38:20;;;;;;;3.70;3.40;;;;;;;8.31;74.33;99055.13;684902;28;1320;-82
2021/12/28 01:38:40;;;;;;;4.53;3.40;;;;;;;8.41;74.36;99063.84;679836;29;1198;-82
2021/12/28 01:39:04;;;;;;;4.70;3.50;;;;;;;8.27;74.32;99050.75;681135;29;1629;-83
2021/12/28 01:39:24;;;;;;;4.30;3.60;;;;;;;8.30;74.25;99058.56;677784;29;1459;-84
2021/12/28 01:39:45;;;;;;;3.90;3.50;;;;;;;8.25;74.37;99047.25;679801;29;1152;-83
2021/12/28 01:40:08;;;;;;;3.83;3.43;;;;;;;8.22;73.99;99048.09;682922;28;1203;-82
2021/12/28 01:40:33;;;;;;;4.10;3.33;;;;;;;8.29;74.36;99066.34;682309;29;1249;-82
2021/12/28 01:40:54;;;;;;;3.70;3.20;;;;;;;8.18;74.33;99048.91;677008;29;1658;-82
2021/12/28 01:41:24;;;;;;;4.03;3.40;;;;;;;8.18;74.04;99048.91;682460;29;1041;-83
2021/12/28 01:41:45;;;;;;;3.60;3.30;;;;;;;8.19;74.50;99055.88;685186;28;871;-82
2021/12/28 01:42:07;;;;;;;3.70;3.40;;;;;;;8.22;73.99;99060.22;682344;29;1088;-82
2021/12/28 01:42:28;;;;;;;3.90;3.30;;;;;;;8.13;74.42;99045.41;682375;28;1192;-82
2021/12/28 01:43:07;;;;;;;5.05;3.65;;;;;;;8.19;74.10;99060.19;679654;29;1602;-82
2021/12/28 01:43:28;;;;;;;4.80;3.50;;;;;;;8.16;74.36;99062.78;679809;29;1088;-82
2021/12/28 01:44:00;;;;;;;4.75;3.03;;;;;;;8.06;74.54;99054.00;679786;29;768;-83
2021/12/28 01:44:22;;;;;;;4.40;3.20;;;;;;;8.06;74.58;99059.19;679593;29;1145;-83
2021/12/28 01:44:42;;;;;;;3.78;3.28;;;;;;;8.04;74.46;99053.97;679806;29;1123;-82
2021/12/28 01:45:04;;;;;;;4.50;3.60;;;;;;;8.07;74.76;99060.94;679741;29;1117;-81
2021/12/28 01:45:37;;;;;;;4.63;3.65;;;;;;;8.05;74.78;99053.13;679845;29;942;-83
2021/12/28 01:46:00;;;;;;;4.07;3.65;;;;;;;8.01;74.84;99053.06;680651;29;1882;-82
2021/12/28 01:46:20;;;;;;;4.00;3.55;;;;;;;8.01;74.97;99050.47;682297;29;1915;-82
2021/12/28 01:46:41;;;;;;;4.97;3.70;;;;;;;7.97;74.54;99041.78;687854;28;814;-82
2021/12/28 01:47:02;;;;;;;5.37;3.50;;;;;;;8.05;74.83;99063.50;682376;29;1016;-82
2021/12/28 01:47:23;;;;;;;6.03;3.60;;;;;;;8.00;75.01;99053.94;676903;29;1464;-82
2021/12/28 01:47:44;;;;;;;4.82;3.25;;;;;;;8.00;74.55;99059.13;679839;29;1323;-82
2021/12/28 01:48:07;;;;;;;6.00;3.70;;;;;;;7.97;74.78;99057.34;682704;28;1252;-82
2021/12/28 01:48:37;;;;;;;4.80;3.53;;;;;;;7.95;74.70;99057.38;682514;29;1080;-83
2021/12/28 01:48:57;;;;;;;4.42;3.44;;;;;;;7.94;74.63;99055.59;682419;29;856;-82